Time;durP1;ratioP1;P1;durP2;ratioP2;P2;SDS_P1;SDS_P2;PMS_P1;PMS_P2;Temp;Humidity;BMP_temperature;BMP_pressure;BME280_temperature;BME280_humidity;BME280_pressure;Samples;Min_cycle;Max_cycle;Signal;HPM_P1;HPM_P2
2021/01/24 00:00:49;;;;;;;10.82;4.10;;;;;;;1.51;80.83;98400.59;5071077;28;20078;-69
2021/01/24 00:03:15;;;;;;;10.27;4.20;;;;;;;1.46;81.17;98406.59;5071951;28;20024;-68
2021/01/24 00:05:46;;;;;;;8.82;2.80;;;;;;;1.55;80.46;98395.47;5076029;28;20044;-68
2021/01/24 00:08:12;;;;;;;9.20;2.67;;;;;;;1.46;81.02;98403.16;5082448;28;20032;-68
2021/01/24 00:10:38;;;;;;;6.70;3.50;;;;;;;1.37;81.61;98404.06;5082309;28;20040;-68
2021/01/24 00:13:04;;;;;;;20.05;6.43;;;;;;;1.40;81.72;98409.16;5097227;28;20528;-69
2021/01/24 00:15:29;;;;;;;9.25;4.15;;;;;;;1.44;81.35;98405.72;5070928;28;20027;-71
2021/01/24 00:17:58;;;;;;;6.68;2.60;;;;;;;1.79;80.14;98410.72;5070392;28;20088;-69
2021/01/24 00:20:23;;;;;;;10.95;4.03;;;;;;;1.59;80.40;98396.31;5085304;28;20029;-71
2021/01/24 00:22:48;;;;;;;9.27;2.97;;;;;;;1.69;80.31;98408.19;5069946;28;20080;-69
2021/01/24 00:25:14;;;;;;;12.95;3.92;;;;;;;1.65;80.29;98398.81;5068655;28;20029;-72
2021/01/24 00:27:41;;;;;;;14.93;3.53;;;;;;;1.61;80.60;98403.09;5069908;28;20085;-68
2021/01/24 00:30:08;;;;;;;7.35;2.72;;;;;;;1.45;81.40;98406.59;5069877;28;20089;-68
2021/01/24 00:32:34;;;;;;;13.48;3.85;;;;;;;1.52;80.95;98395.47;5069822;28;20021;-68
2021/01/24 00:35:00;;;;;;;15.52;3.53;;;;;;;1.60;80.61;98403.09;5069512;28;20021;-68
2021/01/24 00:37:26;;;;;;;17.30;5.20;;;;;;;1.50;81.00;98409.13;5069680;28;20082;-68
2021/01/24 00:39:51;;;;;;;10.65;4.65;;;;;;;1.60;80.38;98398.00;5069954;28;20028;-68
2021/01/24 00:42:16;;;;;;;7.90;5.00;;;;;;;1.65;80.47;98406.50;5069604;28;20021;-68
2021/01/24 00:44:42;;;;;;;11.40;3.45;;;;;;;1.48;81.06;98407.44;5069828;28;20067;-68
2021/01/24 00:47:07;;;;;;;11.70;2.50;;;;;;;1.30;81.88;98407.47;5069484;28;20032;-68
2021/01/24 00:49:33;;;;;;;7.82;5.28;;;;;;;1.38;81.79;98417.69;5068035;28;20035;-68
2021/01/24 00:52:01;;;;;;;13.63;4.35;;;;;;;1.39;81.86;98422.78;5069551;28;20024;-68
2021/01/24 00:54:27;;;;;;;5.78;3.35;;;;;;;1.28;82.12;98407.47;5069597;28;20031;-68
2021/01/24 00:56:52;;;;;;;18.75;5.63;;;;;;;1.29;82.25;98416.88;5084259;28;20104;-68
2021/01/24 00:59:17;;;;;;;9.70;3.80;;;;;;;1.30;81.94;98407.47;5065622;28;20045;-68
2021/01/24 01:01:43;;;;;;;10.23;4.68;;;;;;;1.43;81.62;98419.38;5066118;28;20043;-68
2021/01/24 01:04:08;;;;;;;13.85;4.72;;;;;;;1.35;82.16;98411.75;5066406;28;20044;-69
2021/01/24 01:06:34;;;;;;;5.55;2.75;;;;;;;1.46;81.72;98408.28;5065633;28;20083;-67
2021/01/24 01:08:59;;;;;;;12.23;4.50;;;;;;;1.30;82.32;98404.94;5066101;28;20024;-67
2021/01/24 01:11:25;;;;;;;20.58;6.95;;;;;;;1.39;81.75;98409.19;5066066;28;20064;-68
2021/01/24 01:13:50;;;;;;;11.70;4.80;;;;;;;1.46;81.59;98404.03;5066194;28;20039;-68
2021/01/24 01:16:15;;;;;;;9.85;4.72;;;;;;;1.30;82.18;98407.47;5065722;28;20025;-68
2021/01/24 01:18:41;;;;;;;11.45;3.65;;;;;;;1.28;82.01;98401.53;5065859;28;20036;-69
2021/01/24 01:21:06;;;;;;;16.02;3.33;;;;;;;1.32;82.34;98416.00;5065652;28;20017;-69
2021/01/24 01:23:32;;;;;;;11.45;5.45;;;;;;;1.37;81.92;98421.97;5065918;28;20025;-68
2021/01/24 01:25:57;;;;;;;13.90;4.32;;;;;;;1.34;82.12;98415.13;5065745;28;20025;-69
2021/01/24 01:28:23;;;;;;;12.68;4.07;;;;;;;1.19;82.74;98410.06;5065725;28;20021;-69
2021/01/24 01:30:49;;;;;;;8.35;3.28;;;;;;;1.16;83.28;98413.50;5065896;28;20021;-69
2021/01/24 01:33:15;;;;;;;11.55;5.07;;;;;;;1.18;83.01;98416.88;5065677;28;20478;-68
2021/01/24 01:35:41;;;;;;;10.10;3.60;;;;;;;1.23;82.83;98416.91;5064119;28;20031;-69
2021/01/24 01:38:06;;;;;;;7.78;3.05;;;;;;;1.30;82.74;98413.47;5064822;28;20013;-69
2021/01/24 01:40:31;;;;;;;19.73;6.68;;;;;;;1.26;82.50;98408.34;5064596;28;20412;-69
2021/01/24 01:42:58;;;;;;;15.27;6.38;;;;;;;1.23;82.57;98404.94;5065062;28;20025;-69
2021/01/24 01:45:24;;;;;;;18.30;4.60;;;;;;;1.24;82.95;98410.91;5064838;28;20033;-69
2021/01/24 01:47:49;;;;;;;5.63;2.85;;;;;;;1.21;83.12;98409.22;5064241;28;20032;-69
2021/01/24 01:50:17;;;;;;;12.70;4.95;;;;;;;1.17;83.13;98402.41;5064318;28;20021;-69
2021/01/24 01:52:42;;;;;;;6.32;2.55;;;;;;;1.54;81.46;98400.56;5064448;28;20028;-68
2021/01/24 01:55:08;;;;;;;10.23;3.90;;;;;;;1.39;81.66;98407.44;5063153;28;20017;-68
2021/01/24 01:57:33;;;;;;;13.48;4.95;;;;;;;1.31;82.04;98414.31;5064702;28;20041;-69
2021/01/24 01:59:59;;;;;;;12.60;4.22;;;;;;;1.29;82.32;98423.69;5065198;28;20024;-68
2021/01/24 02:02:42;;;;;;;9.32;3.33;;;;;;;1.30;82.49;98423.69;5065206;28;20036;-69
2021/01/24 02:05:08;;;;;;;17.27;4.95;;;;;;;1.19;82.87;98425.41;5064801;28;20087;-69
2021/01/24 02:08:03;;;;;;;5.35;3.15;;;;;;;1.27;82.67;98410.06;5080131;28;20025;-69
2021/01/24 02:10:46;;;;;;;16.15;5.30;;;;;;;1.23;82.43;98427.13;5042964;28;20161;-69
2021/01/24 02:13:27;;;;;;;12.43;4.82;;;;;;;1.40;82.32;98442.41;5063525;28;20049;-68
2021/01/24 02:15:55;;;;;;;6.60;3.25;;;;;;;1.34;82.01;98434.75;5064930;28;20024;-69
2021/01/24 02:18:21;;;;;;;10.27;3.45;;;;;;;1.42;81.78;98430.44;5064920;28;20021;-68
2021/01/24 02:21:12;;;;;;;18.40;5.93;;;;;;;1.24;82.68;98441.59;5064430;28;20051;-68
2021/01/24 02:23:40;;;;;;;11.48;3.97;;;;;;;1.31;82.16;98435.59;5059729;28;20409;-68
2021/01/24 02:26:29;;;;;;;15.80;6.45;;;;;;;1.19;82.69;98448.41;5064662;28;20024;-68
2021/01/24 02:29:12;;;;;;;19.80;6.80;;;;;;;1.12;82.86;98434.78;5064633;28;20158;-69
2021/01/24 02:31:39;;;;;;;8.65;3.85;;;;;;;1.30;82.40;98433.06;5079778;28;20028;-68
2021/01/24 02:34:07;;;;;;;10.70;4.57;;;;;;;1.44;81.59;98438.13;5064471;28;20469;-69
2021/01/24 02:36:34;;;;;;;10.32;4.28;;;;;;;1.29;82.15;98431.34;5063842;28;20032;-69
2021/01/24 02:39:01;;;;;;;4.18;2.60;;;;;;;1.34;82.04;98434.75;5064338;28;20092;-69
2021/01/24 02:41:27;;;;;;;9.88;4.63;;;;;;;1.29;82.25;98439.03;5064386;28;20116;-69
2021/01/24 02:43:53;;;;;;;13.00;5.95;;;;;;;1.17;82.85;98440.75;5064421;28;20382;-67
2021/01/24 02:46:19;;;;;;;22.17;6.63;;;;;;;1.14;83.10;98438.19;5079624;28;20058;-69
2021/01/24 02:48:45;;;;;;;17.67;5.68;;;;;;;1.18;82.99;98445.00;5063972;28;20032;-70
2021/01/24 02:51:13;;;;;;;23.83;5.55;;;;;;;1.19;82.86;98441.59;5063986;28;20021;-69
2021/01/24 02:53:39;;;;;;;9.75;4.55;;;;;;;1.20;82.77;98439.88;5079743;28;20013;-69
2021/01/24 02:56:05;;;;;;;25.35;7.25;;;;;;;1.22;82.68;98425.41;5064233;28;20146;-69
2021/01/24 02:58:31;;;;;;;12.35;4.85;;;;;;;1.31;82.28;98437.31;5063797;28;20223;-69
2021/01/24 03:00:57;;;;;;;21.58;7.15;;;;;;;1.19;82.54;98436.50;5064256;28;20029;-69
2021/01/24 03:03:23;;;;;;;8.07;4.03;;;;;;;1.43;81.64;98441.53;5063902;28;20078;-69
2021/01/24 03:05:48;;;;;;;11.43;5.07;;;;;;;1.32;81.71;98441.56;5063623;28;20025;-69
2021/01/24 03:08:14;;;;;;;16.42;5.93;;;;;;;1.16;82.51;98451.84;5063924;28;20411;-69
2021/01/24 03:10:40;;;;;;;16.92;5.40;;;;;;;1.28;82.06;98447.56;5063898;28;20021;-69
2021/01/24 03:13:10;;;;;;;13.40;5.65;;;;;;;1.20;82.46;98448.41;5063743;28;20028;-69
2021/01/24 03:15:36;;;;;;;17.60;4.82;;;;;;;1.18;82.67;98444.16;5063696;28;20513;-70
2021/01/24 03:18:03;;;;;;;24.88;7.72;;;;;;;1.09;82.84;98440.78;5063732;28;20040;-70
2021/01/24 03:20:34;;;;;;;12.30;4.03;;;;;;;1.18;82.88;98450.13;5078262;28;20017;-69
2021/01/24 03:23:01;;;;;;;14.27;4.75;;;;;;;1.16;82.87;98451.84;5064157;28;20029;-69
2021/01/24 03:25:28;;;;;;;11.68;4.70;;;;;;;1.29;82.47;98451.81;5063623;28;20025;-69
2021/01/24 03:27:54;;;;;;;25.42;6.13;;;;;;;1.18;82.81;98450.13;5063552;28;20017;-70
2021/01/24 03:30:20;;;;;;;19.45;5.68;;;;;;;1.20;82.66;98445.84;5063697;28;20325;-69
2021/01/24 03:32:45;;;;;;;17.23;5.68;;;;;;;1.28;82.25;98445.00;5063616;28;20025;-69
2021/01/24 03:35:11;;;;;;;10.27;4.80;;;;;;;1.21;82.48;98444.16;5063397;28;20118;-69
2021/01/24 03:37:36;;;;;;;6.28;4.10;;;;;;;1.57;80.73;98429.56;5063545;28;20479;-69
2021/01/24 03:40:03;;;;;;;12.02;3.88;;;;;;;1.70;80.15;98416.72;5063486;28;20044;-69
2021/01/24 03:42:28;;;;;;;18.55;5.18;;;;;;;1.43;80.68;98423.63;5063520;28;20025;-69
2021/01/24 03:44:55;;;;;;;10.63;5.05;;;;;;;1.14;81.88;98424.56;5063616;28;20036;-69
2021/01/24 03:47:20;;;;;;;11.75;4.47;;;;;;;0.99;82.60;98429.69;5063363;28;20079;-69
2021/01/24 03:49:45;;;;;;;16.48;5.60;;;;;;;0.92;83.00;98428.03;5063284;28;20021;-69
2021/01/24 03:52:11;;;;;;;15.25;5.68;;;;;;;1.02;82.70;98430.56;5063458;28;20041;-69
2021/01/24 03:54:36;;;;;;;24.95;9.07;;;;;;;0.95;82.96;98439.94;5063299;28;20093;-69
2021/01/24 03:57:02;;;;;;;19.05;7.47;;;;;;;0.92;83.57;98438.25;5062942;28;20048;-69
2021/01/24 03:59:27;;;;;;;9.63;3.70;;;;;;;1.13;82.36;98428.84;5063137;28;20497;-69
2021/01/24 04:01:52;;;;;;;7.78;3.83;;;;;;;1.22;82.34;98431.38;5063382;28;20025;-69
2021/01/24 04:04:18;;;;;;;14.77;6.40;;;;;;;1.11;82.21;98433.97;5063256;28;20029;-69
2021/01/24 04:06:43;;;;;;;7.50;4.18;;;;;;;0.97;83.01;98443.34;5062813;28;20048;-68
2021/01/24 04:09:08;;;;;;;16.80;6.43;;;;;;;0.92;82.76;98427.16;5078675;28;20025;-68
2021/01/24 04:11:34;;;;;;;23.98;8.68;;;;;;;0.94;82.86;98428.84;5063131;28;20103;-68
2021/01/24 04:14:02;;;;;;;8.30;4.28;;;;;;;0.96;82.89;98424.59;5063138;28;20032;-68
2021/01/24 04:16:28;;;;;;;19.58;7.68;;;;;;;1.09;82.18;98430.53;5062670;28;20031;-68
2021/01/24 04:19:03;;;;;;;12.57;6.43;;;;;;;0.90;82.71;98429.72;5062939;28;20049;-68
2021/01/24 04:21:29;;;;;;;16.08;7.90;;;;;;;0.86;82.98;98426.31;5063023;28;20021;-68
2021/01/24 04:23:55;;;;;;;6.70;3.30;;;;;;;0.98;83.02;98432.25;5062860;28;20017;-68
2021/01/24 04:26:20;;;;;;;17.38;7.20;;;;;;;0.82;83.23;98429.72;5062993;28;20100;-69
2021/01/24 04:28:46;;;;;;;10.35;4.03;;;;;;;0.98;82.80;98429.72;5062810;28;20017;-69
2021/01/24 04:31:11;;;;;;;9.55;4.25;;;;;;;0.93;82.82;98429.72;5063252;28;20024;-69
2021/01/24 04:33:36;;;;;;;11.30;6.10;;;;;;;0.95;82.84;98427.16;5066384;28;20539;-70
2021/01/24 04:36:02;;;;;;;20.17;7.35;;;;;;;0.98;82.48;98438.22;5066570;28;20059;-69
2021/01/24 04:38:28;;;;;;;14.05;5.45;;;;;;;1.05;82.14;98439.09;5066471;28;20025;-69
2021/01/24 04:40:53;;;;;;;12.70;5.40;;;;;;;1.09;81.77;98430.53;5066750;28;20060;-69
2021/01/24 04:43:19;;;;;;;8.57;4.75;;;;;;;1.12;81.88;98439.91;5066794;28;20055;-69
2021/01/24 04:45:45;;;;;;;10.02;4.07;;;;;;;1.16;81.40;98436.50;5066707;28;20036;-67
2021/01/24 04:48:10;;;;;;;14.27;5.78;;;;;;;1.14;81.53;98443.31;5066455;28;20109;-69
2021/01/24 04:50:37;;;;;;;15.90;7.35;;;;;;;1.06;82.00;98434.81;5066277;28;20017;-68
2021/01/24 04:53:02;;;;;;;12.73;4.55;;;;;;;1.07;81.98;98434.81;5065238;28;20083;-69
2021/01/24 04:55:29;;;;;;;11.07;5.40;;;;;;;0.96;82.38;98434.81;5081701;28;20021;-69
2021/01/24 04:57:56;;;;;;;15.18;7.10;;;;;;;0.75;83.29;98430.59;5065888;28;20049;-69
2021/01/24 05:00:22;;;;;;;15.13;4.72;;;;;;;1.05;82.15;98433.09;5066185;28;20048;-69
2021/01/24 05:02:48;;;;;;;12.90;5.18;;;;;;;0.81;82.98;98432.28;5066320;28;20025;-69
2021/01/24 05:05:14;;;;;;;15.18;6.55;;;;;;;0.78;83.07;98442.50;5066142;28;20328;-69
2021/01/24 05:07:39;;;;;;;9.65;4.75;;;;;;;0.85;82.72;98446.75;5081485;28;20021;-69
2021/01/24 05:10:05;;;;;;;6.55;3.22;;;;;;;0.97;82.44;98451.88;5066052;28;20088;-69
2021/01/24 05:12:30;;;;;;;16.85;5.97;;;;;;;0.90;82.59;98451.84;5066218;28;20075;-69
2021/01/24 05:14:57;;;;;;;13.63;6.78;;;;;;;0.79;83.04;98446.75;5066138;28;20025;-69
2021/01/24 05:17:23;;;;;;;18.10;6.72;;;;;;;0.78;83.08;98438.25;5065799;28;20096;-68
2021/01/24 05:19:49;;;;;;;11.55;4.68;;;;;;;0.91;82.49;98440.81;5065906;28;20056;-68
2021/01/24 05:22:15;;;;;;;11.85;5.10;;;;;;;0.88;82.70;98435.69;5065847;28;20049;-68
2021/01/24 05:24:41;;;;;;;16.35;4.95;;;;;;;0.90;82.55;98432.28;5065746;28;20450;-69
2021/01/24 05:27:09;;;;;;;24.17;7.72;;;;;;;0.82;82.77;98439.09;5064437;28;20413;-68
2021/01/24 05:29:37;;;;;;;5.97;3.03;;;;;;;1.04;82.25;98436.53;5065777;28;20389;-68
2021/01/24 05:32:03;;;;;;;10.18;4.10;;;;;;;0.98;82.12;98428.00;5065607;28;20021;-69
2021/01/24 05:34:30;;;;;;;14.77;5.32;;;;;;;0.95;82.33;98429.72;5081274;28;20454;-68
2021/01/24 05:36:57;;;;;;;11.88;5.70;;;;;;;0.88;82.58;98430.59;5065366;28;20449;-68
2021/01/24 05:39:23;;;;;;;14.57;5.60;;;;;;;0.85;82.87;98431.41;5064881;28;20029;-69
2021/01/24 05:41:50;;;;;;;11.68;3.95;;;;;;;0.80;82.95;98431.44;5064388;28;20048;-69
2021/01/24 05:44:17;;;;;;;10.95;4.55;;;;;;;0.89;82.62;98433.13;5064196;28;20162;-69
2021/01/24 05:46:43;;;;;;;8.88;3.75;;;;;;;0.94;82.27;98436.50;5065425;28;20051;-69
2021/01/24 05:49:10;;;;;;;13.43;5.18;;;;;;;0.83;82.72;98433.16;5065508;28;20494;-69
2021/01/24 05:51:36;;;;;;;5.28;2.90;;;;;;;0.92;82.56;98442.50;5065260;28;20048;-69
2021/01/24 05:54:02;;;;;;;19.65;7.30;;;;;;;0.98;82.12;98433.13;5065413;28;20025;-69
2021/01/24 05:56:28;;;;;;;6.60;3.75;;;;;;;1.17;81.54;98440.75;5065295;28;20032;-68
2021/01/24 05:58:57;;;;;;;9.50;4.80;;;;;;;1.19;81.25;98445.84;5065078;28;20051;-70
2021/01/24 06:01:23;;;;;;;10.18;4.95;;;;;;;1.05;81.65;98443.34;5065249;28;20492;-70
2021/01/24 06:03:49;;;;;;;15.40;6.53;;;;;;;1.02;81.82;98445.91;5065119;28;20095;-69
2021/01/24 06:06:15;;;;;;;17.02;8.07;;;;;;;0.86;82.21;98444.19;5064868;28;20099;-69
2021/01/24 06:08:40;;;;;;;7.18;2.92;;;;;;;1.22;80.86;98426.25;5064966;28;20028;-68
2021/01/24 06:11:07;;;;;;;8.80;5.70;;;;;;;1.01;81.35;98446.75;5063650;28;20040;-68
2021/01/24 06:13:34;;;;;;;11.40;4.70;;;;;;;0.96;81.51;98436.50;5064965;28;20080;-69
2021/01/24 06:16:10;;;;;;;20.50;7.78;;;;;;;0.81;82.30;98447.63;5064825;28;20021;-69
2021/01/24 06:18:44;;;;;;;17.60;5.38;;;;;;;0.81;82.20;98445.91;5064671;28;20035;-69
2021/01/24 06:21:16;;;;;;;22.80;7.00;;;;;;;0.71;82.41;98452.72;5064801;28;20027;-67
2021/01/24 06:23:53;;;;;;;10.07;3.40;;;;;;;0.83;82.23;98448.47;5079874;28;20024;-67
2021/01/24 06:26:21;;;;;;;11.38;4.57;;;;;;;0.80;81.64;98441.63;5064539;28;20087;-67
2021/01/24 06:28:49;;;;;;;11.57;4.55;;;;;;;0.70;82.24;98463.78;5064454;28;20009;-67
2021/01/24 06:31:17;;;;;;;16.77;5.70;;;;;;;0.63;82.67;98474.00;5064525;28;20020;-67
2021/01/24 06:33:44;;;;;;;12.75;5.43;;;;;;;0.57;82.95;98477.41;5064506;28;20024;-67
2021/01/24 06:36:09;;;;;;;14.48;5.75;;;;;;;0.82;81.97;98487.63;5064402;28;20047;-67
2021/01/24 06:38:40;;;;;;;9.65;5.22;;;;;;;0.74;82.00;98480.81;5064334;28;20480;-67
2021/01/24 06:41:09;;;;;;;15.10;4.60;;;;;;;0.68;82.54;98488.50;5064313;28;20025;-67
2021/01/24 06:43:37;;;;;;;9.93;4.57;;;;;;;0.80;82.03;98484.25;5064559;28;20037;-67
2021/01/24 06:46:26;;;;;;;11.93;4.20;;;;;;;0.71;82.66;98485.06;5064249;28;20035;-67
2021/01/24 06:48:53;;;;;;;10.13;4.32;;;;;;;0.78;82.16;98498.72;5053125;28;20068;-67
2021/01/24 06:51:44;;;;;;;8.13;3.00;;;;;;;0.77;82.40;98494.47;5064036;28;20032;-66
2021/01/24 06:54:15;;;;;;;14.20;5.72;;;;;;;0.84;82.40;98493.59;5062051;28;20055;-67
2021/01/24 06:56:45;;;;;;;14.00;5.47;;;;;;;0.78;82.40;98499.56;5062847;28;20032;-68
2021/01/24 06:59:12;;;;;;;17.50;8.15;;;;;;;0.59;82.90;98501.25;5064023;28;20272;-68
2021/01/24 07:01:46;;;;;;;11.60;5.05;;;;;;;0.73;82.98;98501.25;5063923;28;20032;-67
2021/01/24 07:04:21;;;;;;;14.40;5.93;;;;;;;0.79;82.47;98498.72;5063992;28;20129;-67
2021/01/24 07:06:58;;;;;;;16.50;7.13;;;;;;;0.56;83.44;98504.63;5063480;28;20028;-67
2021/01/24 07:09:29;;;;;;;18.50;8.38;;;;;;;0.58;83.55;98499.53;5063909;28;20017;-68
2021/01/24 07:11:55;;;;;;;16.50;5.33;;;;;;;0.72;83.28;98508.06;5063889;28;20032;-67
2021/01/24 07:14:33;;;;;;;24.38;9.10;;;;;;;0.57;83.68;98510.59;5063704;28;20262;-67
2021/01/24 07:17:11;;;;;;;14.20;6.25;;;;;;;0.57;84.02;98506.34;5063981;28;20081;-68
2021/01/24 07:19:40;;;;;;;18.02;7.72;;;;;;;0.61;83.62;98504.63;5063708;28;20021;-66
2021/01/24 07:22:06;;;;;;;23.08;7.85;;;;;;;0.57;83.78;98510.59;5063648;28;20074;-68
2021/01/24 07:24:32;;;;;;;30.10;12.10;;;;;;;0.48;83.98;98508.88;5063915;28;20024;-67
2021/01/24 07:26:58;;;;;;;28.67;9.32;;;;;;;0.51;84.00;98519.13;5063881;28;20277;-67
2021/01/24 07:29:28;;;;;;;13.00;6.50;;;;;;;0.56;83.91;98522.50;5063595;28;20391;-67
2021/01/24 07:31:53;;;;;;;18.02;7.55;;;;;;;0.63;83.42;98522.50;5063849;28;20052;-68
2021/01/24 07:34:23;;;;;;;14.35;6.47;;;;;;;0.76;83.09;98521.69;5079039;28;20024;-66
2021/01/24 07:36:50;;;;;;;25.10;9.48;;;;;;;0.53;83.68;98537.00;5063346;28;20033;-67
2021/01/24 07:39:16;;;;;;;22.63;8.75;;;;;;;0.46;83.99;98529.28;5063251;28;20051;-68
2021/01/24 07:41:43;;;;;;;24.05;8.23;;;;;;;0.70;83.08;98525.06;5063615;28;20074;-68
2021/01/24 07:44:08;;;;;;;29.38;8.70;;;;;;;0.60;83.19;98525.94;5063679;28;20021;-69
2021/01/24 07:46:34;;;;;;;12.43;5.40;;;;;;;0.63;83.25;98525.06;5063416;28;20539;-68
2021/01/24 07:48:59;;;;;;;15.98;8.55;;;;;;;0.57;83.30;98521.69;5063627;28;20021;-68
2021/01/24 07:51:27;;;;;;;16.45;6.50;;;;;;;0.60;83.33;98525.94;5063667;28;20070;-68
2021/01/24 07:53:53;;;;;;;21.92;7.05;;;;;;;0.51;83.69;98531.03;5064172;28;20021;-67
2021/01/24 07:56:19;;;;;;;10.48;4.38;;;;;;;0.46;83.80;98526.75;5079006;28;20059;-67
2021/01/24 07:58:45;;;;;;;27.02;10.50;;;;;;;0.45;83.84;98519.94;5063835;28;20061;-68
2021/01/24 08:01:13;;;;;;;20.52;9.32;;;;;;;0.42;84.08;98529.28;5064406;28;20025;-68
2021/01/24 08:03:39;;;;;;;20.35;8.38;;;;;;;0.39;84.37;98529.28;5064890;28;20050;-68
2021/01/24 08:06:14;;;;;;;27.95;11.35;;;;;;;0.35;84.35;98523.34;5064723;28;20025;-68
2021/01/24 08:08:41;;;;;;;15.18;6.97;;;;;;;0.65;83.68;98523.38;5067520;28;20056;-68
2021/01/24 08:11:07;;;;;;;13.93;5.53;;;;;;;0.60;83.92;98523.38;5068001;28;20028;-67
2021/01/24 08:13:34;;;;;;;17.90;7.03;;;;;;;0.62;83.96;98516.56;5068468;28;20032;-68
2021/01/24 08:16:04;;;;;;;30.55;7.38;;;;;;;0.75;83.79;98514.91;5066167;28;20025;-67
2021/01/24 08:18:32;;;;;;;15.80;6.97;;;;;;;0.93;83.20;98521.69;5067067;28;20025;-68
2021/01/24 08:20:58;;;;;;;12.77;6.78;;;;;;;0.82;83.71;98518.28;5066894;28;20035;-67
2021/01/24 08:23:28;;;;;;;10.25;6.53;;;;;;;0.95;83.51;98520.00;5067188;28;20021;-67
2021/01/24 08:25:55;;;;;;;14.18;7.45;;;;;;;1.06;83.24;98531.91;5067073;28;20024;-67
2021/01/24 08:28:20;;;;;;;14.25;6.10;;;;;;;1.12;82.78;98526.81;5066827;28;20024;-69
2021/01/24 08:30:46;;;;;;;19.17;9.15;;;;;;;1.05;83.13;98530.22;5065686;28;20025;-68
2021/01/24 08:33:13;;;;;;;13.13;6.45;;;;;;;0.97;83.58;98538.75;5066896;28;20433;-69
2021/01/24 08:35:39;;;;;;;13.55;7.18;;;;;;;1.10;83.19;98541.31;5066669;28;20024;-70
2021/01/24 08:38:05;;;;;;;15.77;6.53;;;;;;;0.97;83.18;98518.31;5066485;28;20048;-68
2021/01/24 08:40:37;;;;;;;10.88;5.32;;;;;;;1.15;82.94;98536.19;5065343;28;20473;-67
2021/01/24 08:43:04;;;;;;;12.13;5.63;;;;;;;1.14;83.21;98544.69;5066779;28;20060;-68
2021/01/24 08:45:30;;;;;;;18.33;7.65;;;;;;;1.15;83.09;98552.38;5066686;28;20083;-69
2021/01/24 08:48:01;;;;;;;17.50;8.05;;;;;;;1.18;82.98;98559.19;5066694;28;20025;-68
2021/01/24 08:50:37;;;;;;;24.13;8.63;;;;;;;1.13;83.02;98554.09;5066680;28;20073;-66
2021/01/24 08:53:04;;;;;;;17.08;8.60;;;;;;;1.22;82.67;98556.63;5066657;28;20029;-69
2021/01/24 08:55:30;;;;;;;20.25;9.13;;;;;;;1.09;83.32;98562.59;5082017;28;20036;-67
2021/01/24 08:57:56;;;;;;;14.00;7.45;;;;;;;1.12;83.30;98557.47;5066259;28;20036;-67
2021/01/24 09:00:23;;;;;;;19.88;7.63;;;;;;;1.13;83.61;98573.69;5066378;28;20029;-69
2021/01/24 09:02:49;;;;;;;20.17;7.43;;;;;;;1.20;83.40;98566.00;5066803;28;20024;-69
2021/01/24 09:05:27;;;;;;;13.77;6.90;;;;;;;1.09;83.49;98571.13;5065957;28;20027;-69
2021/01/24 09:07:53;;;;;;;15.98;5.25;;;;;;;1.29;82.96;98569.41;5066212;28;20082;-67
2021/01/24 09:10:20;;;;;;;20.92;9.77;;;;;;;1.18;83.33;98577.09;5066250;28;20453;-68
2021/01/24 09:12:54;;;;;;;13.35;5.13;;;;;;;1.34;82.89;98571.09;5066487;28;20025;-69
2021/01/24 09:15:21;;;;;;;21.50;9.27;;;;;;;1.36;82.74;98571.09;5066577;28;20043;-67
2021/01/24 09:17:51;;;;;;;14.10;5.35;;;;;;;1.34;82.72;98571.09;5065862;28;20021;-67
2021/01/24 09:20:21;;;;;;;24.25;10.68;;;;;;;1.30;82.61;98566.00;5064752;28;20021;-68
2021/01/24 09:22:47;;;;;;;26.08;10.45;;;;;;;1.21;83.02;98577.94;5065979;28;20021;-67
2021/01/24 09:25:13;;;;;;;21.85;9.02;;;;;;;1.41;82.19;98573.66;5065909;28;20055;-69
2021/01/24 09:27:39;;;;;;;18.60;7.80;;;;;;;1.43;82.01;98585.59;5065990;28;20024;-70
2021/01/24 09:30:08;;;;;;;17.55;7.43;;;;;;;1.43;81.85;98582.19;5065874;28;20021;-70
2021/01/24 09:32:33;;;;;;;27.73;7.55;;;;;;;1.31;82.37;98591.56;5065970;28;20025;-69
2021/01/24 09:34:59;;;;;;;12.82;5.90;;;;;;;1.40;82.11;98595.84;5081077;28;20032;-68
2021/01/24 09:37:24;;;;;;;15.05;6.63;;;;;;;1.46;81.70;98590.72;5065143;28;20025;-68
2021/01/24 09:39:59;;;;;;;16.05;7.75;;;;;;;1.30;82.33;98581.34;5065381;28;20473;-68
2021/01/24 09:42:24;;;;;;;14.63;7.75;;;;;;;1.29;82.52;98590.72;5065566;28;20063;-67
2021/01/24 09:44:50;;;;;;;21.35;4.90;;;;;;;1.28;82.34;98572.84;5065288;28;20021;-68
2021/01/24 09:47:15;;;;;;;12.02;4.95;;;;;;;1.48;81.78;98585.59;5065435;28;20029;-69
2021/01/24 09:49:41;;;;;;;23.55;7.50;;;;;;;1.31;82.22;98583.06;5065353;28;20389;-68
2021/01/24 09:52:07;;;;;;;17.30;6.45;;;;;;;1.56;81.33;98588.16;5065172;28;20094;-68
2021/01/24 09:54:32;;;;;;;8.32;3.72;;;;;;;1.44;81.96;98587.31;5065270;28;20024;-68
2021/01/24 09:56:57;;;;;;;13.43;7.00;;;;;;;1.45;81.74;98595.84;5065120;28;20036;-67
2021/01/24 09:59:23;;;;;;;22.50;8.05;;;;;;;1.31;82.34;98600.97;5080546;28;20102;-68
2021/01/24 10:01:48;;;;;;;18.00;9.27;;;;;;;1.36;82.13;98612.00;5065324;28;20451;-68
2021/01/24 10:04:13;;;;;;;14.10;7.75;;;;;;;1.45;82.03;98604.34;5065182;28;20032;-67
2021/01/24 10:06:39;;;;;;;13.95;7.78;;;;;;;1.48;82.16;98612.03;5064773;28;20029;-67
2021/01/24 10:09:06;;;;;;;11.48;6.60;;;;;;;1.48;81.90;98612.03;5064990;28;20045;-68
2021/01/24 10:11:31;;;;;;;8.05;4.93;;;;;;;1.55;81.94;98610.31;5065140;28;20067;-69
2021/01/24 10:13:57;;;;;;;20.52;10.05;;;;;;;1.43;82.11;98618.84;5065233;28;20037;-69
2021/01/24 10:16:22;;;;;;;11.82;5.90;;;;;;;1.55;81.88;98612.03;5065182;28;20021;-68
2021/01/24 10:18:48;;;;;;;10.48;5.32;;;;;;;1.60;81.73;98610.31;5064647;28;20440;-68
2021/01/24 10:21:13;;;;;;;15.55;5.75;;;;;;;1.55;82.19;98612.88;5064716;28;20032;-71
2021/01/24 10:23:39;;;;;;;17.60;7.65;;;;;;;1.63;81.36;98607.75;5064920;28;20025;-67
2021/01/24 10:26:05;;;;;;;12.30;6.63;;;;;;;1.61;81.21;98612.84;5064648;28;20052;-68
2021/01/24 10:28:30;;;;;;;14.82;8.45;;;;;;;1.62;81.27;98613.72;5064431;28;20028;-69
2021/01/24 10:30:55;;;;;;;23.23;9.77;;;;;;;1.59;81.35;98623.97;5064383;28;20028;-69
2021/01/24 10:33:21;;;;;;;15.88;6.85;;;;;;;1.57;81.60;98620.53;5064625;28;20021;-68
2021/01/24 10:35:47;;;;;;;17.88;8.65;;;;;;;1.55;81.71;98614.59;5064342;28;20021;-69
2021/01/24 10:38:13;;;;;;;12.15;5.72;;;;;;;1.65;81.21;98606.03;5064164;28;20025;-66
2021/01/24 10:40:39;;;;;;;19.77;8.18;;;;;;;1.55;81.67;98623.09;5064600;28;20035;-69
2021/01/24 10:43:06;;;;;;;13.15;6.68;;;;;;;1.52;81.82;98623.09;5064578;28;20283;-68
2021/01/24 10:45:32;;;;;;;16.70;7.07;;;;;;;1.56;81.90;98614.59;5064298;28;20077;-70
2021/01/24 10:47:58;;;;;;;7.68;4.63;;;;;;;1.57;81.84;98611.16;5063989;28;20025;-68
2021/01/24 10:50:24;;;;;;;18.38;8.35;;;;;;;1.53;82.08;98603.50;5064209;28;20020;-68
2021/01/24 10:52:49;;;;;;;16.05;8.80;;;;;;;1.53;82.22;98609.47;5079830;28;20036;-69
2021/01/24 10:55:15;;;;;;;20.10;9.48;;;;;;;1.56;82.38;98606.06;5064307;28;20029;-69
2021/01/24 10:57:40;;;;;;;14.85;5.82;;;;;;;1.65;81.94;98613.72;5063838;28;20531;-68
2021/01/24 11:00:07;;;;;;;16.10;8.57;;;;;;;1.65;82.13;98605.19;5064461;28;20484;-70
2021/01/24 11:02:32;;;;;;;17.25;8.23;;;;;;;1.77;81.45;98612.88;5064513;28;20036;-68
2021/01/24 11:04:57;;;;;;;22.23;7.55;;;;;;;1.82;81.14;98611.13;5064288;28;20029;-67
2021/01/24 11:07:23;;;;;;;17.42;8.20;;;;;;;1.73;81.50;98611.16;5063652;28;20024;-69
2021/01/24 11:09:48;;;;;;;22.30;8.07;;;;;;;1.85;81.09;98615.41;5064104;28;20088;-68
2021/01/24 11:12:14;;;;;;;13.88;7.78;;;;;;;1.79;81.61;98620.53;5064017;28;20103;-69
2021/01/24 11:14:39;;;;;;;20.63;9.68;;;;;;;1.81;81.46;98621.38;5063932;28;20056;-69
2021/01/24 11:17:05;;;;;;;16.27;7.38;;;;;;;1.83;81.36;98615.41;5079111;28;20035;-69
2021/01/24 11:19:30;;;;;;;17.05;7.75;;;;;;;1.94;80.95;98612.81;5064036;28;20072;-66
2021/01/24 11:21:55;;;;;;;8.93;4.60;;;;;;;1.95;80.77;98617.06;5063757;28;20025;-65
2021/01/24 11:24:21;;;;;;;12.32;5.80;;;;;;;1.86;81.24;98609.41;5064004;28;20109;-66
2021/01/24 11:26:48;;;;;;;18.35;7.85;;;;;;;1.89;81.28;98617.09;5064188;28;20028;-66
2021/01/24 11:29:13;;;;;;;17.20;9.32;;;;;;;1.81;81.55;98627.34;5064117;28;20025;-68
2021/01/24 11:31:38;;;;;;;20.70;8.32;;;;;;;1.82;81.57;98615.41;5063961;28;20024;-67
2021/01/24 11:34:04;;;;;;;20.55;10.00;;;;;;;1.87;81.31;98623.91;5062337;28;20021;-66